createdAt,value
2023-03-21T00:04:25.916Z,8.50
2023-03-21T00:09:27.906Z,8.10
2023-03-21T00:14:31.778Z,7.90
2023-03-21T00:19:38.488Z,7.40
2023-03-21T00:24:40.870Z,7.20
2023-03-21T00:29:44.312Z,7.20
2023-03-21T00:34:59.574Z,7.10
2023-03-21T00:40:16.388Z,7.30
2023-03-21T00:45:26.891Z,7.40
2023-03-21T00:50:29.135Z,7.50
2023-03-21T00:55:31.555Z,7.30
2023-03-21T01:00:37.287Z,6.90
2023-03-21T01:06:00.120Z,6.80
2023-03-21T01:11:09.054Z,6.70
2023-03-21T01:16:13.665Z,6.60
2023-03-21T01:21:16.144Z,6.90
2023-03-21T01:26:18.280Z,6.80
2023-03-21T01:31:22.066Z,7.00
2023-03-21T01:36:26.755Z,7.10
2023-03-21T01:41:46.694Z,6.90
2023-03-21T01:47:11.334Z,6.60
2023-03-21T01:52:26.774Z,6.60
2023-03-21T01:57:42.366Z,6.60
2023-03-21T02:02:58.044Z,6.80
2023-03-21T02:08:02.847Z,6.90
2023-03-21T02:13:09.950Z,7.00
2023-03-21T02:18:18.711Z,7.10
2023-03-21T02:23:59.860Z,7.10
2023-03-21T02:29:08.916Z,7.10
2023-03-21T02:34:37.500Z,7.10
2023-03-21T02:39:54.847Z,7.10
2023-03-21T02:45:02.848Z,7.10
2023-03-21T02:50:11.243Z,7.00
2023-03-21T02:55:19.156Z,6.90
2023-03-21T03:00:24.737Z,6.90
2023-03-21T03:05:29.672Z,7.00
2023-03-21T03:10:43.542Z,7.10
2023-03-21T03:15:57.133Z,7.10
2023-03-21T03:21:08.575Z,6.80
2023-03-21T03:26:17.107Z,6.60
2023-03-21T03:31:26.355Z,6.40
2023-03-21T03:36:36.096Z,6.20
2023-03-21T03:42:06.097Z,6.00
2023-03-21T03:47:15.173Z,5.90
2023-03-21T03:52:24.887Z,6.20
2023-03-21T03:57:29.128Z,6.50
2023-03-21T04:02:32.449Z,6.30
2023-03-21T04:07:35.154Z,6.10
2023-03-21T04:12:38.605Z,6.10
2023-03-21T04:17:40.789Z,6.00
2023-03-21T04:22:43.005Z,5.90
2023-03-21T04:27:48.638Z,5.70
2023-03-21T04:32:54.302Z,5.60
2023-03-21T04:37:56.773Z,5.50
2023-03-21T04:43:01.451Z,5.40
2023-03-21T04:48:04.648Z,5.70
2023-03-21T04:53:06.731Z,5.90
2023-03-21T04:58:10.567Z,5.80
2023-03-21T05:03:19.872Z,6.00
2023-03-21T05:08:22.050Z,5.90
2023-03-21T05:13:25.957Z,5.70
2023-03-21T05:18:28.148Z,5.70
2023-03-21T05:23:31.817Z,5.70
2023-03-21T05:28:36.990Z,5.80
2023-03-21T05:33:39.019Z,6.10
2023-03-21T05:38:45.599Z,6.10
2023-03-21T05:43:49.288Z,6.20
2023-03-21T05:48:52.249Z,6.30
2023-03-21T05:53:54.526Z,6.40
2023-03-21T05:58:58.409Z,6.50
2023-03-21T06:04:00.844Z,6.50
2023-03-21T06:09:02.925Z,6.30
2023-03-21T06:14:07.069Z,6.20
2023-03-21T06:19:09.479Z,6.10
2023-03-21T06:24:12.085Z,6.20
2023-03-21T06:29:16.037Z,6.20
2023-03-21T06:34:18.437Z,6.30
2023-03-21T06:39:20.213Z,6.50
2023-03-21T06:44:24.540Z,6.80
2023-03-21T06:49:27.726Z,7.10
2023-03-21T06:54:31.133Z,7.50
2023-03-21T06:59:34.756Z,7.90
2023-03-21T07:04:36.946Z,8.30
2023-03-21T07:09:39.452Z,8.60
2023-03-21T07:14:42.958Z,9.00
2023-03-21T07:19:45.117Z,9.20
2023-03-21T07:24:55.879Z,9.40
2023-03-21T07:30:07.678Z,9.60
2023-03-21T07:35:13.151Z,9.80
2023-03-21T07:40:15.850Z,10.10
2023-03-21T07:45:22.120Z,10.30
2023-03-21T07:50:24.452Z,10.60
2023-03-21T07:55:26.717Z,10.90
2023-03-21T08:00:31.744Z,10.90
2023-03-21T08:05:37.327Z,10.80
2023-03-21T08:10:39.945Z,11.10
2023-03-21T08:15:43.514Z,11.50
2023-03-21T08:20:45.793Z,12.30
2023-03-21T08:25:48.179Z,13.40
2023-03-21T08:30:52.155Z,13.90
2023-03-21T08:35:54.089Z,14.90
2023-03-21T08:40:59.149Z,14.70
2023-03-21T08:46:04.786Z,14.40
2023-03-21T08:51:07.536Z,15.60
2023-03-21T08:56:10.711Z,16.10
2023-03-21T09:01:15.899Z,16.10
2023-03-21T09:06:18.873Z,16.00
2023-03-21T09:11:21.038Z,15.70
2023-03-21T09:16:25.231Z,16.00
2023-03-21T09:21:28.909Z,15.70
2023-03-21T09:26:31.524Z,15.90
2023-03-21T09:31:35.610Z,16.00
2023-03-21T09:36:38.964Z,16.50
2023-03-21T09:42:01.894Z,16.90
2023-03-21T09:47:17.430Z,16.90
2023-03-21T09:52:25.919Z,17.10
2023-03-21T09:57:34.380Z,16.40
2023-03-21T10:02:40.982Z,15.90
2023-03-21T10:07:47.913Z,16.70
2023-03-21T10:12:53.138Z,16.30
2023-03-21T10:18:01.780Z,16.50
2023-03-21T10:23:08.003Z,17.10
2023-03-21T10:28:16.959Z,17.50
2023-03-21T10:33:24.300Z,18.00
2023-03-21T10:38:27.781Z,17.30
2023-03-21T10:43:38.061Z,18.40
2023-03-21T10:48:46.637Z,19.20
2023-03-21T10:53:53.909Z,20.50
2023-03-21T10:59:00.139Z,21.60
2023-03-21T11:04:09.910Z,21.30
2023-03-21T11:09:17.836Z,20.80
2023-03-21T11:14:35.402Z,23.30
2023-03-21T11:19:39.809Z,24.20
2023-03-21T11:24:43.411Z,24.30
2023-03-21T11:29:48.962Z,25.00
2023-03-21T11:34:58.183Z,23.80
2023-03-21T11:40:09.540Z,23.10
2023-03-21T11:45:17.459Z,22.30
2023-03-21T11:50:32.784Z,22.00
2023-03-21T11:55:47.497Z,21.40
2023-03-21T12:00:57.428Z,20.90
2023-03-21T12:06:04.538Z,21.00
2023-03-21T12:11:14.599Z,21.50
2023-03-21T12:16:34.974Z,21.00
2023-03-21T12:21:49.330Z,21.30
2023-03-21T12:26:59.291Z,21.50
2023-03-21T12:32:12.397Z,21.30
2023-03-21T12:37:24.132Z,20.90
2023-03-21T12:42:59.225Z,20.40
2023-03-21T12:48:16.590Z,19.70
2023-03-21T12:53:36.344Z,19.40
2023-03-21T12:58:46.331Z,19.00
2023-03-21T13:03:53.186Z,18.70
2023-03-21T13:09:01.972Z,17.60
2023-03-21T13:14:07.661Z,17.30
2023-03-21T13:19:20.049Z,17.10
2023-03-21T13:24:30.070Z,16.80
2023-03-21T13:29:37.160Z,16.90
2023-03-21T13:34:41.612Z,17.10
2023-03-21T13:39:47.694Z,18.50
2023-03-21T13:44:51.627Z,19.10
2023-03-21T13:50:25.875Z,19.80
2023-03-21T13:55:30.688Z,20.60
2023-03-21T14:00:35.314Z,20.60
2023-03-21T14:05:38.983Z,19.60
2023-03-21T14:10:46.331Z,19.50
2023-03-21T14:15:55.945Z,19.70
2023-03-21T14:21:02.154Z,19.90
2023-03-21T14:26:09.821Z,20.70
2023-03-21T14:31:17.480Z,21.20
2023-03-21T14:36:22.777Z,21.60
2023-03-21T14:41:28.714Z,20.80
2023-03-21T14:46:31.255Z,20.30
2023-03-21T14:51:33.519Z,19.80
2023-03-21T14:56:39.364Z,19.90
2023-03-21T15:01:42.084Z,19.70
2023-03-21T15:06:52.605Z,20.00
2023-03-21T15:11:57.900Z,19.10
2023-03-21T15:17:02.354Z,17.70
2023-03-21T15:22:14.597Z,17.30
2023-03-21T15:27:21.615Z,17.20
2023-03-21T15:32:26.924Z,16.80
2023-03-21T15:37:30.055Z,16.40
2023-03-21T15:42:38.746Z,16.60
2023-03-21T15:47:51.864Z,16.80
2023-03-21T15:52:54.735Z,17.00
2023-03-21T15:58:05.592Z,17.20
2023-03-21T16:03:17.270Z,16.60
2023-03-21T16:08:21.446Z,16.50
2023-03-21T16:13:25.308Z,16.30
2023-03-21T16:18:29.656Z,15.80
2023-03-21T16:23:31.868Z,15.70
2023-03-21T16:28:35.792Z,15.30
2023-03-21T16:33:38.155Z,15.30
2023-03-21T16:38:40.512Z,15.30
2023-03-21T16:43:44.729Z,15.10
2023-03-21T16:48:49.923Z,15.00
2023-03-21T16:53:52.285Z,14.70
2023-03-21T16:58:57.423Z,14.60
2023-03-21T17:04:00.640Z,14.30
2023-03-21T17:09:05.021Z,14.10
2023-03-21T17:14:09.990Z,13.90
2023-03-21T17:19:15.206Z,13.70
2023-03-21T17:24:17.666Z,13.50
2023-03-21T17:29:22.037Z,13.30
2023-03-21T17:34:25.321Z,13.20
2023-03-21T17:39:29.371Z,13.00
2023-03-21T17:44:33.858Z,12.70
2023-03-21T17:49:36.508Z,12.60
2023-03-21T17:54:38.820Z,12.50
2023-03-21T17:59:44.071Z,12.40
2023-03-21T18:04:47.008Z,12.30
2023-03-21T18:09:49.982Z,12.30
2023-03-21T18:14:57.636Z,12.20
2023-03-21T18:20:02.029Z,12.10
2023-03-21T18:25:06.131Z,11.90
2023-03-21T18:30:36.109Z,11.80
2023-03-21T18:35:43.297Z,11.90
2023-03-21T18:40:47.822Z,11.80
2023-03-21T18:45:56.510Z,11.70
2023-03-21T18:50:59.916Z,11.50
2023-03-21T18:56:09.624Z,11.50
2023-03-21T19:01:14.585Z,11.50
2023-03-21T19:06:18.763Z,11.30
2023-03-21T19:11:23.900Z,11.10
2023-03-21T19:16:34.511Z,11.10
2023-03-21T19:21:53.833Z,11.00
2023-03-21T19:26:58.421Z,10.90
2023-03-21T19:32:04.220Z,10.70
2023-03-21T19:37:11.103Z,10.60
2023-03-21T19:42:17.664Z,10.40
2023-03-21T19:47:23.928Z,10.40
2023-03-21T19:52:27.576Z,10.30
2023-03-21T19:57:31.442Z,10.20
2023-03-21T20:02:37.164Z,10.30
2023-03-21T20:07:43.967Z,10.20
2023-03-21T20:12:47.734Z,10.10
2023-03-21T20:17:54.479Z,10.00
2023-03-21T20:23:07.403Z,9.80
2023-03-21T20:28:17.312Z,9.80
2023-03-21T20:33:31.007Z,9.70
2023-03-21T20:38:35.854Z,9.60
2023-03-21T20:49:09.045Z,9.30
2023-03-21T20:54:28.680Z,9.40
2023-03-21T21:00:26.666Z,9.20
2023-03-21T21:06:05.114Z,9.30
2023-03-21T21:16:54.710Z,9.20
2023-03-21T21:21:58.615Z,9.10
2023-03-21T21:27:01.527Z,9.00
2023-03-21T21:32:05.448Z,9.10
2023-03-21T21:37:09.113Z,9.00
2023-03-21T21:42:11.407Z,9.10
2023-03-21T21:47:13.580Z,9.10
2023-03-21T21:52:22.201Z,9.00
2023-03-21T21:57:24.456Z,8.90
2023-03-21T22:02:27.473Z,9.20
2023-03-21T22:07:32.453Z,9.40
2023-03-21T22:12:34.708Z,9.40
2023-03-21T22:17:37.721Z,9.30
2023-03-21T22:22:41.937Z,9.10
2023-03-21T22:27:44.438Z,8.90
2023-03-21T22:32:56.483Z,8.60
2023-03-21T22:38:06.072Z,8.70
2023-03-21T22:43:08.959Z,8.50
2023-03-21T22:48:11.271Z,8.30
2023-03-21T22:53:15.088Z,8.20
2023-03-21T22:58:17.491Z,8.30
2023-03-21T23:03:19.879Z,8.40
2023-03-21T23:08:23.914Z,8.40
2023-03-21T23:13:27.127Z,8.10
2023-03-21T23:18:29.359Z,7.90
2023-03-21T23:23:36.808Z,7.80
2023-03-21T23:28:39.465Z,7.80
2023-03-21T23:33:41.807Z,8.10
2023-03-21T23:38:46.328Z,8.20
2023-03-21T23:43:49.318Z,8.30
2023-03-21T23:48:51.597Z,8.40
2023-03-21T23:53:56.683Z,8.30
2023-03-21T23:58:59.705Z,8.50
